createdAt,value
2018-08-16T17:48:54.693Z,25.70
2018-08-16T17:51:23.357Z,26.70
2018-08-16T17:53:52.817Z,27.00
2018-08-16T17:56:22.190Z,27.10
2018-08-16T17:58:50.498Z,27.20
2018-08-16T18:01:20.671Z,27.20
2018-08-16T18:03:50.060Z,27.20
2018-08-16T18:06:19.782Z,27.10
2018-08-16T18:08:48.135Z,27.10
2018-08-16T18:11:16.621Z,27.00
2018-08-16T18:13:45.072Z,27.00
2018-08-16T18:16:13.349Z,26.90
2018-08-16T18:18:46.210Z,26.80
2018-08-16T18:21:14.574Z,26.70
2018-08-16T18:23:43.005Z,26.70
2018-08-16T18:26:11.575Z,26.60
2018-08-16T18:28:39.887Z,26.50
2018-08-16T18:31:08.153Z,26.40
2018-08-16T18:33:36.447Z,26.40
2018-08-16T18:36:04.832Z,26.30
2018-08-16T18:38:33.072Z,26.20
2018-08-16T18:41:01.381Z,26.20
2018-08-16T18:43:29.677Z,26.10
2018-08-16T18:45:57.961Z,26.00
2018-08-16T18:48:26.317Z,25.90
2018-08-16T18:50:54.704Z,25.80
2018-08-16T18:53:23.052Z,25.70
2018-08-16T18:55:51.431Z,25.60
2018-08-16T18:58:20.488Z,25.60
2018-08-16T19:00:48.763Z,25.50
2018-08-16T19:03:17.069Z,25.50
2018-08-16T19:05:45.515Z,25.30
2018-08-16T19:08:13.736Z,25.30
2018-08-16T19:10:42.180Z,25.10
2018-08-16T19:13:10.588Z,25.10
2018-08-16T19:15:39.313Z,25.10
2018-08-16T19:18:07.639Z,25.10
2018-08-16T19:20:35.919Z,25.00
2018-08-16T19:23:04.268Z,24.90
2018-08-16T19:25:32.576Z,24.80
2018-08-16T19:28:00.867Z,24.80
2018-08-16T19:30:29.237Z,24.70
2018-08-16T19:32:57.692Z,24.60
2018-08-16T19:35:26.021Z,24.50
2018-08-16T19:37:54.385Z,24.50
2018-08-16T19:40:25.709Z,24.40
2018-08-16T19:42:54.110Z,24.40
2018-08-16T19:45:22.496Z,24.40
2018-08-16T19:47:50.881Z,24.30
2018-08-16T19:50:19.288Z,24.30
2018-08-16T19:52:47.627Z,24.20
2018-08-16T19:55:16.074Z,24.20
2018-08-16T19:57:44.355Z,24.10
2018-08-16T20:00:12.723Z,24.10
2018-08-16T20:02:41.076Z,24.00
2018-08-16T20:05:09.416Z,24.00
2018-08-16T20:07:37.806Z,23.90
2018-08-16T20:10:08.016Z,23.90
2018-08-16T20:12:36.556Z,23.80
2018-08-16T20:15:05.515Z,23.80
2018-08-16T20:17:33.862Z,23.70
2018-08-16T20:20:02.282Z,23.60
2018-08-16T20:22:30.750Z,23.60
2018-08-16T20:24:59.243Z,23.50
2018-08-16T20:27:27.540Z,23.50
2018-08-16T20:29:56.126Z,23.40
2018-08-16T20:32:26.457Z,23.40
2018-08-16T20:34:57.035Z,23.30
2018-08-16T20:37:25.493Z,23.30
2018-08-16T20:39:53.844Z,23.20
2018-08-16T20:42:23.344Z,23.20
2018-08-16T20:44:51.929Z,23.10
2018-08-16T20:47:21.708Z,23.10
2018-08-16T20:49:50.125Z,23.00
2018-08-16T20:52:21.740Z,22.90
2018-08-16T20:54:50.122Z,22.90
2018-08-16T20:57:18.611Z,22.80
2018-08-16T20:59:46.984Z,22.70
2018-08-16T21:02:15.471Z,22.70
2018-08-16T21:04:43.803Z,22.70
2018-08-16T21:07:12.388Z,22.60
2018-08-16T21:09:40.748Z,22.60
2018-08-16T21:12:09.038Z,22.50
2018-08-16T21:14:37.386Z,22.50
2018-08-16T21:17:05.750Z,22.50
2018-08-16T21:19:34.069Z,22.40
2018-08-16T21:22:02.393Z,22.30
2018-08-16T21:24:31.377Z,22.30
2018-08-16T21:26:59.734Z,22.30
2018-08-16T21:29:28.110Z,22.20
2018-08-16T21:31:56.496Z,22.20
2018-08-16T21:34:24.846Z,22.10
2018-08-16T21:36:53.199Z,22.10
2018-08-16T21:39:21.596Z,22.00
2018-08-16T21:41:49.911Z,22.00
2018-08-16T21:44:18.268Z,21.90
2018-08-16T21:46:46.681Z,21.90
2018-08-16T21:49:15.058Z,21.80
2018-08-16T21:51:43.417Z,21.80
2018-08-16T21:54:11.799Z,21.70
2018-08-16T21:56:40.187Z,21.70
2018-08-16T21:59:08.642Z,21.70
2018-08-16T22:01:36.996Z,21.70
2018-08-16T22:04:05.378Z,21.70
2018-08-16T22:06:45.143Z,21.60
2018-08-16T22:09:13.831Z,21.50
2018-08-16T22:11:42.317Z,21.50
2018-08-16T22:14:10.791Z,21.50
2018-08-16T22:16:39.132Z,21.40
2018-08-16T22:19:07.458Z,21.40
2018-08-16T22:21:35.750Z,21.30
2018-08-16T22:24:04.509Z,21.30
2018-08-16T22:26:32.813Z,21.30
2018-08-16T22:29:01.167Z,21.20
2018-08-16T22:31:29.512Z,21.20
2018-08-16T22:33:57.950Z,21.20
2018-08-16T22:36:27.239Z,21.20
2018-08-16T22:38:55.488Z,21.20
2018-08-16T22:41:23.786Z,21.10
2018-08-16T22:43:52.047Z,21.10
2018-08-16T22:46:20.349Z,21.10
2018-08-16T22:48:48.731Z,21.00
2018-08-16T22:51:17.109Z,20.90
2018-08-16T22:53:45.486Z,20.80
2018-08-16T22:56:13.852Z,20.80
2018-08-16T22:58:42.142Z,20.80
2018-08-16T23:01:10.470Z,20.70
2018-08-16T23:03:38.801Z,20.70
2018-08-16T23:06:07.282Z,20.70
2018-08-16T23:08:35.680Z,20.70
2018-08-16T23:11:05.044Z,20.70
2018-08-16T23:13:33.328Z,20.60
2018-08-16T23:16:01.748Z,20.60
2018-08-16T23:18:30.177Z,20.60
2018-08-16T23:20:58.466Z,20.60
2018-08-16T23:23:27.013Z,20.50
2018-08-16T23:25:56.352Z,20.50
2018-08-16T23:28:24.620Z,20.50
2018-08-16T23:30:54.917Z,20.50
2018-08-16T23:33:28.927Z,20.40
2018-08-16T23:35:57.455Z,20.30
2018-08-16T23:38:25.828Z,20.20
2018-08-16T23:40:54.202Z,20.20
2018-08-16T23:43:22.480Z,20.20
2018-08-16T23:45:50.748Z,20.20
2018-08-16T23:48:31.422Z,20.10
2018-08-16T23:51:03.803Z,20.10
2018-08-16T23:53:32.279Z,20.10
2018-08-16T23:56:00.659Z,20.00
2018-08-16T23:58:29.128Z,20.00
